Time;durP1;ratioP1;P1;durP2;ratioP2;P2;SDS_P1;SDS_P2;PMS_P1;PMS_P2;Temp;Humidity;BMP_temperature;BMP_pressure;BME280_temperature;BME280_humidity;BME280_pressure;Samples;Min_cycle;Max_cycle;Signal;HPM_P1;HPM_P2
2024/01/18 00:00:48;;;;;;;14.00;9.40;;;;;;;-128.00;-1.00;-1.00;133629;1274;1004776;-76
2024/01/18 00:04:11;;;;;;;16.60;9.80;;;;;;;-128.00;-1.00;-1.00;133604;1274;1003955;-76
2024/01/18 00:07:13;;;;;;;16.70;9.60;;;;;;;-128.00;-1.00;-1.00;133630;1274;1004487;-76
2024/01/18 00:10:16;;;;;;;14.60;8.90;;;;;;;-128.00;-1.00;-1.00;133505;1274;1004137;-76
2024/01/18 00:13:18;;;;;;;13.50;8.70;;;;;;;-128.00;-1.00;-1.00;133654;1274;1004344;-76
2024/01/18 00:16:21;;;;;;;16.30;9.80;;;;;;;-128.00;-1.00;-1.00;133612;1274;1005524;-76
2024/01/18 00:19:23;;;;;;;17.00;9.00;;;;;;;-128.00;-1.00;-1.00;133531;1274;1004067;-76
2024/01/18 00:22:25;;;;;;;15.10;9.50;;;;;;;-128.00;-1.00;-1.00;133511;1274;1005020;-76
2024/01/18 00:25:28;;;;;;;19.80;9.50;;;;;;;-128.00;-1.00;-1.00;133569;1274;1003766;-76
2024/01/18 00:28:30;;;;;;;16.20;8.30;;;;;;;-128.00;-1.00;-1.00;133543;1274;1006826;-76
2024/01/18 00:31:33;;;;;;;15.90;9.50;;;;;;;-128.00;-1.00;-1.00;133665;1274;1004338;-76
2024/01/18 00:34:35;;;;;;;15.40;8.60;;;;;;;-128.00;-1.00;-1.00;133612;1274;1004267;-76
2024/01/18 00:37:38;;;;;;;14.80;8.50;;;;;;;-128.00;-1.00;-1.00;133572;1274;1004811;-76
2024/01/18 00:40:41;;;;;;;16.80;9.00;;;;;;;-128.00;-1.00;-1.00;133567;1274;1004792;-76
2024/01/18 00:43:44;;;;;;;15.70;8.50;;;;;;;-128.00;-1.00;-1.00;133507;1274;1004755;-76
2024/01/18 00:46:46;;;;;;;14.90;8.80;;;;;;;-128.00;-1.00;-1.00;133581;1274;1003918;-76
2024/01/18 00:49:49;;;;;;;15.20;9.50;;;;;;;-128.00;-1.00;-1.00;133582;1274;1004324;-76
2024/01/18 00:52:51;;;;;;;16.80;9.50;;;;;;;-128.00;-1.00;-1.00;133622;1274;1004187;-76
2024/01/18 00:55:54;;;;;;;13.50;8.60;;;;;;;-128.00;-1.00;-1.00;133582;1274;1005008;-76
2024/01/18 00:58:56;;;;;;;15.30;8.90;;;;;;;-128.00;-1.00;-1.00;133630;1274;1005634;-76
2024/01/18 01:01:59;;;;;;;15.00;8.60;;;;;;;-128.00;-1.00;-1.00;133626;1274;1004555;-76
2024/01/18 01:05:01;;;;;;;15.00;8.00;;;;;;;-128.00;-1.00;-1.00;133569;1274;1003848;-76
2024/01/18 01:08:04;;;;;;;15.20;8.70;;;;;;;-128.00;-1.00;-1.00;133765;1274;1004540;-76
2024/01/18 01:11:08;;;;;;;14.30;8.80;;;;;;;-128.00;-1.00;-1.00;133712;1274;1004304;-76
2024/01/18 01:14:12;;;;;;;13.00;8.30;;;;;;;-128.00;-1.00;-1.00;133777;1274;1003915;-76
2024/01/18 01:17:14;;;;;;;15.30;9.20;;;;;;;-128.00;-1.00;-1.00;133622;1274;1003825;-76
2024/01/18 01:20:17;;;;;;;15.60;9.10;;;;;;;-128.00;-1.00;-1.00;133586;1274;1005203;-76
2024/01/18 01:23:19;;;;;;;15.10;9.80;;;;;;;-128.00;-1.00;-1.00;133624;1274;1004593;-76
2024/01/18 01:26:22;;;;;;;15.30;9.30;;;;;;;-128.00;-1.00;-1.00;133600;1274;1004190;-76
2024/01/18 01:29:24;;;;;;;16.90;10.10;;;;;;;-128.00;-1.00;-1.00;133621;1274;1003907;-76
2024/01/18 01:32:27;;;;;;;13.50;8.70;;;;;;;-128.00;-1.00;-1.00;133597;1274;1004148;-76
2024/01/18 01:35:29;;;;;;;15.10;9.40;;;;;;;-128.00;-1.00;-1.00;133597;1274;1003749;-76
2024/01/18 01:38:32;;;;;;;14.90;9.30;;;;;;;-128.00;-1.00;-1.00;133628;1274;1003872;-76
2024/01/18 01:41:34;;;;;;;14.20;9.00;;;;;;;-128.00;-1.00;-1.00;133555;1274;1003907;-77
2024/01/18 01:44:37;;;;;;;19.00;10.00;;;;;;;-128.00;-1.00;-1.00;133494;1274;1003709;-76
2024/01/18 01:47:39;;;;;;;16.30;9.90;;;;;;;-128.00;-1.00;-1.00;133499;1274;1004618;-77
2024/01/18 01:50:42;;;;;;;16.70;9.30;;;;;;;-128.00;-1.00;-1.00;133558;1274;1004406;-76
2024/01/18 01:53:44;;;;;;;16.10;9.10;;;;;;;-128.00;-1.00;-1.00;133580;1274;1004753;-76
2024/01/18 01:56:46;;;;;;;15.50;8.50;;;;;;;-128.00;-1.00;-1.00;133616;1274;1003649;-76
2024/01/18 01:59:49;;;;;;;13.00;8.50;;;;;;;-128.00;-1.00;-1.00;133571;1274;1003598;-76
2024/01/18 02:02:51;;;;;;;11.40;7.60;;;;;;;-128.00;-1.00;-1.00;133548;1274;1004790;-76
2024/01/18 02:05:54;;;;;;;13.00;7.70;;;;;;;-128.00;-1.00;-1.00;133537;1274;1003518;-76
2024/01/18 02:08:56;;;;;;;12.20;7.40;;;;;;;-128.00;-1.00;-1.00;133506;1274;1004500;-77
2024/01/18 02:11:59;;;;;;;11.10;7.40;;;;;;;-128.00;-1.00;-1.00;133461;1274;1004483;-76
2024/01/18 02:15:01;;;;;;;13.60;8.50;;;;;;;-128.00;-1.00;-1.00;133613;1274;1004207;-77
2024/01/18 02:18:04;;;;;;;13.80;8.20;;;;;;;-128.00;-1.00;-1.00;133594;1274;1004359;-77
2024/01/18 02:21:08;;;;;;;14.00;8.30;;;;;;;-128.00;-1.00;-1.00;133638;1274;1004325;-76
2024/01/18 02:24:10;;;;;;;12.20;7.80;;;;;;;-128.00;-1.00;-1.00;133633;1274;1003980;-76
2024/01/18 02:27:13;;;;;;;14.70;9.10;;;;;;;-128.00;-1.00;-1.00;133646;1274;1004346;-76
2024/01/18 02:30:15;;;;;;;11.30;7.80;;;;;;;-128.00;-1.00;-1.00;133618;1274;1005097;-77
2024/01/18 02:33:17;;;;;;;16.00;8.80;;;;;;;-128.00;-1.00;-1.00;133619;1274;1003584;-76
2024/01/18 02:36:20;;;;;;;15.30;9.10;;;;;;;-128.00;-1.00;-1.00;133424;1274;1005698;-76
2024/01/18 02:39:22;;;;;;;32.60;23.70;;;;;;;-128.00;-1.00;-1.00;133592;1274;1004016;-76
2024/01/18 02:42:25;;;;;;;12.40;9.40;;;;;;;-128.00;-1.00;-1.00;133567;1274;1004304;-76
2024/01/18 02:45:27;;;;;;;12.70;8.20;;;;;;;-128.00;-1.00;-1.00;133621;1274;1003850;-80
2024/01/18 02:48:30;;;;;;;11.60;7.60;;;;;;;-128.00;-1.00;-1.00;133559;1274;1004609;-81
2024/01/18 02:51:32;;;;;;;13.30;8.00;;;;;;;-128.00;-1.00;-1.00;133661;1274;1004865;-81
2024/01/18 02:54:35;;;;;;;13.30;8.10;;;;;;;-128.00;-1.00;-1.00;133635;1274;1004429;-81
2024/01/18 02:57:37;;;;;;;12.60;7.40;;;;;;;-128.00;-1.00;-1.00;133540;1274;1004247;-81
2024/01/18 03:00:40;;;;;;;11.10;7.60;;;;;;;-128.00;-1.00;-1.00;133728;1274;1004728;-81
2024/01/18 03:03:42;;;;;;;14.90;8.60;;;;;;;-128.00;-1.00;-1.00;133654;1274;1003967;-81
2024/01/18 03:06:45;;;;;;;13.50;7.70;;;;;;;-128.00;-1.00;-1.00;133669;1274;1005174;-79
2024/01/18 03:09:47;;;;;;;12.20;8.20;;;;;;;-128.00;-1.00;-1.00;133725;1274;1004960;-82
2024/01/18 03:12:50;;;;;;;13.50;7.70;;;;;;;-128.00;-1.00;-1.00;133664;1274;1004232;-82
2024/01/18 03:15:52;;;;;;;10.80;7.00;;;;;;;-128.00;-1.00;-1.00;133620;1274;1003421;-81
2024/01/18 03:18:55;;;;;;;10.60;6.90;;;;;;;-128.00;-1.00;-1.00;133582;1274;1005245;-82
2024/01/18 03:21:57;;;;;;;10.40;7.40;;;;;;;-128.00;-1.00;-1.00;133666;1274;1004128;-82
2024/01/18 03:25:00;;;;;;;11.30;7.10;;;;;;;-128.00;-1.00;-1.00;133576;1274;1003616;-81
2024/01/18 03:28:02;;;;;;;11.00;7.10;;;;;;;-128.00;-1.00;-1.00;133755;1274;1004805;-81
2024/01/18 03:31:05;;;;;;;11.20;7.10;;;;;;;-128.00;-1.00;-1.00;133650;1274;1004487;-81
2024/01/18 03:34:08;;;;;;;10.20;6.60;;;;;;;-128.00;-1.00;-1.00;133648;1274;1004639;-81
2024/01/18 03:37:10;;;;;;;10.30;6.70;;;;;;;-128.00;-1.00;-1.00;133844;1274;1004564;-81
2024/01/18 03:40:13;;;;;;;10.30;7.00;;;;;;;-128.00;-1.00;-1.00;133701;1274;1004203;-81
2024/01/18 03:43:15;;;;;;;10.90;6.80;;;;;;;-128.00;-1.00;-1.00;133668;1274;1003828;-81
2024/01/18 03:46:20;;;;;;;12.40;7.50;;;;;;;-128.00;-1.00;-1.00;133704;1274;1004644;-82
2024/01/18 03:49:23;;;;;;;13.50;8.00;;;;;;;-128.00;-1.00;-1.00;133598;1274;1004237;-81
2024/01/18 03:52:25;;;;;;;11.40;7.50;;;;;;;-128.00;-1.00;-1.00;133608;1274;1004510;-81
2024/01/18 03:55:28;;;;;;;10.80;7.40;;;;;;;-128.00;-1.00;-1.00;133720;1274;1004957;-80
2024/01/18 03:58:30;;;;;;;15.50;7.80;;;;;;;-128.00;-1.00;-1.00;133693;1274;1003917;-81
2024/01/18 04:01:32;;;;;;;11.30;7.20;;;;;;;-128.00;-1.00;-1.00;133649;1274;1004064;-81
2024/01/18 04:04:35;;;;;;;12.90;7.80;;;;;;;-128.00;-1.00;-1.00;133639;1274;1004198;-80
2024/01/18 04:07:38;;;;;;;11.20;7.40;;;;;;;-128.00;-1.00;-1.00;133602;1274;1004815;-80
2024/01/18 04:10:41;;;;;;;10.50;7.00;;;;;;;-128.00;-1.00;-1.00;133696;1274;1003942;-80
2024/01/18 04:13:43;;;;;;;12.00;7.50;;;;;;;-128.00;-1.00;-1.00;133684;1274;1004194;-80
2024/01/18 04:16:46;;;;;;;11.60;7.40;;;;;;;-128.00;-1.00;-1.00;133641;1274;1004716;-81
2024/01/18 04:19:48;;;;;;;17.00;6.40;;;;;;;-128.00;-1.00;-1.00;133632;1274;1003960;-80
2024/01/18 04:22:51;;;;;;;14.30;9.40;;;;;;;-128.00;-1.00;-1.00;133655;1274;1004354;-81
2024/01/18 04:25:54;;;;;;;12.80;8.40;;;;;;;-128.00;-1.00;-1.00;133668;1274;1003908;-80
2024/01/18 04:28:56;;;;;;;12.20;8.40;;;;;;;-128.00;-1.00;-1.00;133626;1274;1004940;-80
2024/01/18 04:31:59;;;;;;;15.50;9.00;;;;;;;-128.00;-1.00;-1.00;133601;1274;1005117;-80
2024/01/18 04:35:01;;;;;;;12.10;8.40;;;;;;;-128.00;-1.00;-1.00;133514;1274;1003579;-81
2024/01/18 04:38:04;;;;;;;11.90;8.20;;;;;;;-128.00;-1.00;-1.00;133662;1274;1003635;-81
2024/01/18 04:41:06;;;;;;;10.80;8.00;;;;;;;-128.00;-1.00;-1.00;133561;1274;1004675;-80
2024/01/18 04:44:09;;;;;;;11.30;7.30;;;;;;;-128.00;-1.00;-1.00;133428;1274;1004231;-80
2024/01/18 04:47:11;;;;;;;13.60;7.80;;;;;;;-128.00;-1.00;-1.00;133566;1274;1004821;-81
2024/01/18 04:50:14;;;;;;;14.60;8.50;;;;;;;-128.00;-1.00;-1.00;133599;1274;1003538;-80
2024/01/18 04:53:17;;;;;;;16.10;10.80;;;;;;;-128.00;-1.00;-1.00;133470;1274;1004120;-79
2024/01/18 04:56:20;;;;;;;13.30;8.50;;;;;;;-128.00;-1.00;-1.00;133599;1274;1003425;-80
2024/01/18 04:59:22;;;;;;;12.00;8.50;;;;;;;-128.00;-1.00;-1.00;133611;1274;1003738;-80
2024/01/18 05:02:25;;;;;;;11.70;7.90;;;;;;;-128.00;-1.00;-1.00;133586;1274;1003335;-80
2024/01/18 05:05:28;;;;;;;13.60;8.20;;;;;;;-128.00;-1.00;-1.00;133590;1274;1003989;-80
2024/01/18 05:08:31;;;;;;;12.10;8.20;;;;;;;-128.00;-1.00;-1.00;133571;1274;1003893;-80
2024/01/18 05:11:34;;;;;;;13.80;8.20;;;;;;;-128.00;-1.00;-1.00;133575;1274;1003964;-80
2024/01/18 05:14:36;;;;;;;15.50;8.60;;;;;;;-128.00;-1.00;-1.00;133584;1274;1004637;-80
2024/01/18 05:17:38;;;;;;;11.40;7.60;;;;;;;-128.00;-1.00;-1.00;133576;1274;1004015;-80
2024/01/18 05:20:41;;;;;;;12.70;8.60;;;;;;;-128.00;-1.00;-1.00;133594;1274;1005122;-80
2024/01/18 05:23:44;;;;;;;12.60;8.60;;;;;;;-128.00;-1.00;-1.00;133544;1274;1004458;-78
2024/01/18 05:26:46;;;;;;;12.90;9.20;;;;;;;-128.00;-1.00;-1.00;133552;1274;1004271;-78
2024/01/18 05:29:48;;;;;;;11.90;8.60;;;;;;;-128.00;-1.00;-1.00;133595;1274;1003745;-79
2024/01/18 05:32:51;;;;;;;12.40;8.00;;;;;;;-128.00;-1.00;-1.00;133570;1274;1004275;-80
2024/01/18 05:35:54;;;;;;;11.50;8.20;;;;;;;-131.14;19.20;21852.17;134546;1274;1002752;-80
2024/01/18 05:38:56;;;;;;;13.10;9.00;;;;;;;-128.00;-1.00;-1.00;133765;1274;1002411;-80
2024/01/18 05:41:59;;;;;;;14.60;9.90;;;;;;;-128.00;-1.00;-1.00;133659;1274;1002372;-80
2024/01/18 05:45:01;;;;;;;16.30;8.90;;;;;;;-128.00;-1.00;-1.00;133554;1274;1003569;-81
2024/01/18 05:48:04;;;;;;;21.90;10.00;;;;;;;-128.00;-1.00;-1.00;133574;1274;1003851;-81
2024/01/18 05:51:06;;;;;;;16.40;9.70;;;;;;;-128.00;-1.00;-1.00;133592;1274;1004513;-81
2024/01/18 05:54:09;;;;;;;13.80;10.50;;;;;;;-128.00;-1.00;-1.00;133593;1274;1003922;-80
2024/01/18 05:57:11;;;;;;;13.80;9.70;;;;;;;-128.00;-1.00;-1.00;133700;1274;1004187;-80
2024/01/18 06:00:14;;;;;;;25.30;17.70;;;;;;;-128.00;-1.00;-1.00;133672;1274;1004714;-79
2024/01/18 06:03:17;;;;;;;13.90;10.30;;;;;;;-128.00;-1.00;-1.00;133578;1274;1005067;-80
2024/01/18 06:06:19;;;;;;;16.40;10.40;;;;;;;-128.00;-1.00;-1.00;133618;1274;1004215;-81
2024/01/18 06:09:22;;;;;;;15.30;9.40;;;;;;;-128.00;-1.00;-1.00;133606;1274;1004525;-81
2024/01/18 06:12:24;;;;;;;15.10;9.60;;;;;;;-128.00;-1.00;-1.00;133630;1274;1003839;-82
2024/01/18 06:15:27;;;;;;;14.80;9.70;;;;;;;-128.00;-1.00;-1.00;133599;1274;1004630;-81
2024/01/18 06:18:30;;;;;;;15.10;9.70;;;;;;;-128.00;-1.00;-1.00;133524;1274;1004202;-81
2024/01/18 06:21:33;;;;;;;13.40;9.20;;;;;;;-128.00;-1.00;-1.00;133606;1274;1005169;-81
2024/01/18 06:24:35;;;;;;;15.00;9.50;;;;;;;-128.00;-1.00;-1.00;133592;1274;1005196;-81
2024/01/18 06:27:38;;;;;;;12.10;9.00;;;;;;;-128.00;-1.00;-1.00;133632;1274;1005547;-81
2024/01/18 06:30:43;;;;;;;14.90;9.50;;;;;;;-128.00;-1.00;-1.00;133558;1274;1004624;-81
2024/01/18 06:33:45;;;;;;;16.70;10.20;;;;;;;-128.00;-1.00;-1.00;133594;1274;1004101;-80
2024/01/18 06:36:48;;;;;;;14.00;9.90;;;;;;;-128.00;-1.00;-1.00;133608;1274;1004239;-80
2024/01/18 06:39:52;;;;;;;16.10;11.00;;;;;;;-128.00;-1.00;-1.00;133612;1274;1003966;-80
2024/01/18 06:42:54;;;;;;;14.20;10.00;;;;;;;-128.00;-1.00;-1.00;133602;1274;1005250;-80
2024/01/18 06:45:57;;;;;;;15.60;10.00;;;;;;;-128.00;-1.00;-1.00;133558;1274;1003756;-80
2024/01/18 06:49:00;;;;;;;14.90;10.20;;;;;;;-128.00;-1.00;-1.00;133592;1274;1003999;-80
2024/01/18 06:52:03;;;;;;;15.80;9.30;;;;;;;-128.00;-1.00;-1.00;133581;1274;1004089;-79
2024/01/18 06:55:06;;;;;;;14.40;9.30;;;;;;;-128.00;-1.00;-1.00;133578;1274;1005144;-79
2024/01/18 06:58:09;;;;;;;18.60;9.90;;;;;;;-128.00;-1.00;-1.00;133572;1274;1003717;-80
2024/01/18 07:01:12;;;;;;;13.60;10.10;;;;;;;-128.00;-1.00;-1.00;133546;1274;1003734;-81
2024/01/18 07:04:15;;;;;;;17.50;11.40;;;;;;;-128.00;-1.00;-1.00;133539;1274;1004112;-80
2024/01/18 07:07:17;;;;;;;16.90;12.10;;;;;;;-128.00;-1.00;-1.00;133561;1274;1004583;-80
2024/01/18 07:10:20;;;;;;;17.50;12.40;;;;;;;-128.00;-1.00;-1.00;133569;1274;1004357;-81
2024/01/18 07:13:23;;;;;;;21.40;12.30;;;;;;;-128.00;-1.00;-1.00;133530;1274;1004526;-80
2024/01/18 07:16:25;;;;;;;19.60;13.00;;;;;;;-128.00;-1.00;-1.00;133628;1274;1004834;-82
2024/01/18 07:19:28;;;;;;;24.40;12.20;;;;;;;-128.00;-1.00;-1.00;133538;1274;1003828;-81
2024/01/18 07:22:30;;;;;;;17.50;12.50;;;;;;;-128.00;-1.00;-1.00;133558;1274;1004687;-80
2024/01/18 07:25:33;;;;;;;23.60;12.60;;;;;;;-128.00;-1.00;-1.00;133576;1274;1003616;-81
2024/01/18 07:28:35;;;;;;;22.30;11.80;;;;;;;-128.00;-1.00;-1.00;133566;1274;1003716;-81
2024/01/18 07:31:39;;;;;;;31.40;15.80;;;;;;;-128.00;-1.00;-1.00;133535;1274;1003542;-81
2024/01/18 07:34:41;;;;;;;20.70;13.80;;;;;;;-128.00;-1.00;-1.00;133556;1274;1003349;-80
2024/01/18 07:37:44;;;;;;;25.70;15.20;;;;;;;-128.00;-1.00;-1.00;133564;1274;1004044;-79
2024/01/18 07:40:48;;;;;;;79.90;26.90;;;;;;;-128.00;-1.00;-1.00;133570;1274;1004635;-81
2024/01/18 07:43:50;;;;;;;88.10;46.40;;;;;;;-128.00;-1.00;-1.00;133547;1274;1004394;-80
2024/01/18 07:46:53;;;;;;;106.50;54.50;;;;;;;-128.00;-1.00;-1.00;133539;1274;1004002;-80
2024/01/18 07:49:56;;;;;;;102.70;54.20;;;;;;;-128.00;-1.00;-1.00;133564;1274;1004381;-81
2024/01/18 07:52:58;;;;;;;53.50;29.00;;;;;;;-128.00;-1.00;-1.00;133559;1274;1003966;-80
2024/01/18 07:56:01;;;;;;;48.30;27.20;;;;;;;-128.00;-1.00;-1.00;133559;1274;1004146;-80
2024/01/18 07:59:03;;;;;;;39.80;23.10;;;;;;;-128.00;-1.00;-1.00;133583;1274;1004729;-80
2024/01/18 08:02:06;;;;;;;39.40;27.00;;;;;;;-128.00;-1.00;-1.00;133558;1260;1004273;-80
2024/01/18 08:05:08;;;;;;;36.60;25.20;;;;;;;-128.00;-1.00;-1.00;133588;1274;1004967;-81
2024/01/18 08:08:11;;;;;;;33.10;23.30;;;;;;;-128.00;-1.00;-1.00;133605;1274;1003761;-80
2024/01/18 08:11:14;;;;;;;36.40;24.70;;;;;;;-128.00;-1.00;-1.00;133534;1274;1003640;-79
2024/01/18 08:14:16;;;;;;;35.90;23.90;;;;;;;-128.00;-1.00;-1.00;133561;1274;1004145;-81
2024/01/18 08:17:19;;;;;;;32.80;23.60;;;;;;;-128.00;-1.00;-1.00;133727;1274;1004289;-79
2024/01/18 08:20:23;;;;;;;39.60;23.20;;;;;;;-128.00;-1.00;-1.00;133714;1274;1004937;-80
2024/01/18 08:23:26;;;;;;;45.10;25.50;;;;;;;-128.00;-1.00;-1.00;133568;1274;1003817;-79
2024/01/18 08:26:29;;;;;;;50.80;26.20;;;;;;;-128.00;-1.00;-1.00;133664;1274;1004388;-79
2024/01/18 08:29:31;;;;;;;42.20;25.90;;;;;;;-128.00;-1.00;-1.00;133751;1274;1002193;-79
2024/01/18 08:32:34;;;;;;;85.60;41.30;;;;;;;-128.00;-1.00;-1.00;133619;1274;1002647;-79
2024/01/18 08:35:37;;;;;;;74.90;39.40;;;;;;;-131.14;19.20;21852.17;134376;1274;1002386;-79
2024/01/18 08:38:40;;;;;;;55.60;32.00;;;;;;;-128.00;-1.00;-1.00;133451;1274;1003950;-80
2024/01/18 08:41:42;;;;;;;69.90;43.70;;;;;;;-128.00;-1.00;-1.00;133535;1274;1003857;-79
2024/01/18 08:44:45;;;;;;;70.00;42.40;;;;;;;-128.00;-1.00;-1.00;133521;1274;1004001;-80
2024/01/18 08:47:48;;;;;;;67.60;42.30;;;;;;;-128.00;-1.00;-1.00;133526;1274;1003924;-79
2024/01/18 08:50:51;;;;;;;68.30;42.10;;;;;;;-128.00;-1.00;-1.00;133524;1274;1004902;-80
2024/01/18 08:53:54;;;;;;;43.90;30.10;;;;;;;-128.00;-1.00;-1.00;133538;1274;1004673;-80
2024/01/18 08:56:56;;;;;;;26.70;19.90;;;;;;;-128.00;-1.00;-1.00;133289;1274;1004484;-79
2024/01/18 08:59:59;;;;;;;30.10;21.00;;;;;;;-128.00;-1.00;-1.00;133608;1274;1004401;-79
2024/01/18 09:03:01;;;;;;;29.60;22.30;;;;;;;-128.00;-1.00;-1.00;133559;1274;1003937;-79
2024/01/18 09:06:04;;;;;;;30.10;21.40;;;;;;;-128.00;-1.00;-1.00;133566;1274;1004714;-79
2024/01/18 09:09:10;;;;;;;30.80;21.70;;;;;;;-128.00;-1.00;-1.00;133611;1274;1003931;-77
2024/01/18 09:12:13;;;;;;;28.80;21.10;;;;;;;-128.00;-1.00;-1.00;133559;1274;1004044;-79
2024/01/18 09:15:16;;;;;;;30.40;22.90;;;;;;;-128.00;-1.00;-1.00;133609;1274;1005206;-79
2024/01/18 09:18:18;;;;;;;32.20;23.30;;;;;;;-128.00;-1.00;-1.00;133608;1274;1005528;-79
2024/01/18 09:21:21;;;;;;;32.00;21.70;;;;;;;-128.00;-1.00;-1.00;133605;1274;1004410;-79
2024/01/18 09:24:23;;;;;;;32.60;22.80;;;;;;;-128.00;-1.00;-1.00;133620;1274;1004392;-79
2024/01/18 09:27:25;;;;;;;35.30;23.30;;;;;;;-128.00;-1.00;-1.00;133565;1274;1005104;-79
2024/01/18 09:30:28;;;;;;;36.20;24.30;;;;;;;-128.00;-1.00;-1.00;133531;1274;1003882;-79
2024/01/18 09:33:30;;;;;;;34.60;24.10;;;;;;;-128.00;-1.00;-1.00;133604;1274;1004132;-79
2024/01/18 09:36:33;;;;;;;31.80;22.50;;;;;;;-128.00;-1.00;-1.00;133550;1274;1004136;-79
2024/01/18 09:39:35;;;;;;;30.60;21.60;;;;;;;-128.00;-1.00;-1.00;133508;1274;1003681;-79
2024/01/18 09:42:38;;;;;;;26.10;19.40;;;;;;;-128.00;-1.00;-1.00;133584;1274;1004992;-79
2024/01/18 09:45:41;;;;;;;27.70;20.20;;;;;;;-128.00;-1.00;-1.00;133572;1274;1004473;-79
2024/01/18 09:48:44;;;;;;;29.30;20.80;;;;;;;-128.00;-1.00;-1.00;133649;1274;1003945;-79
2024/01/18 09:51:46;;;;;;;26.10;19.10;;;;;;;-128.00;-1.00;-1.00;133597;1274;1004207;-78
2024/01/18 09:54:48;;;;;;;19.90;15.90;;;;;;;-128.00;-1.00;-1.00;133547;1274;1004211;-79
2024/01/18 09:57:51;;;;;;;21.20;16.30;;;;;;;-128.00;-1.00;-1.00;133617;1274;1004109;-78
2024/01/18 10:00:55;;;;;;;29.10;20.30;;;;;;;-128.00;-1.00;-1.00;133577;1274;1003897;-78
2024/01/18 10:03:57;;;;;;;29.70;19.10;;;;;;;-128.00;-1.00;-1.00;133551;1274;1004488;-78
2024/01/18 10:06:59;;;;;;;29.00;21.40;;;;;;;-128.00;-1.00;-1.00;133527;1275;1004590;-78
2024/01/18 10:10:02;;;;;;;37.60;26.00;;;;;;;-128.00;-1.00;-1.00;133586;1274;1005209;-78
2024/01/18 10:13:04;;;;;;;39.30;26.90;;;;;;;-128.00;-1.00;-1.00;133544;1274;1004459;-79
2024/01/18 10:16:07;;;;;;;47.90;30.90;;;;;;;-128.00;-1.00;-1.00;133517;1274;1003848;-79
2024/01/18 10:19:14;;;;;;;54.40;33.50;;;;;;;-128.00;-1.00;-1.00;133607;1274;1003482;-79
2024/01/18 10:22:16;;;;;;;51.20;31.80;;;;;;;-128.00;-1.00;-1.00;133595;1274;1004475;-78
2024/01/18 10:25:19;;;;;;;45.80;28.80;;;;;;;-128.00;-1.00;-1.00;133613;1274;1003553;-78
2024/01/18 10:28:21;;;;;;;49.90;31.50;;;;;;;-128.00;-1.00;-1.00;133618;1274;1005403;-79
2024/01/18 10:31:23;;;;;;;55.80;31.90;;;;;;;-128.00;-1.00;-1.00;133593;1274;1004811;-78
2024/01/18 10:34:26;;;;;;;50.00;31.70;;;;;;;-128.00;-1.00;-1.00;133622;1274;1004692;-79
2024/01/18 10:37:29;;;;;;;47.20;30.30;;;;;;;-128.00;-1.00;-1.00;133580;1275;1004443;-79
2024/01/18 10:40:32;;;;;;;46.40;29.80;;;;;;;-128.00;-1.00;-1.00;133552;1274;1005133;-79
2024/01/18 10:43:34;;;;;;;40.30;25.90;;;;;;;-128.00;-1.00;-1.00;133562;1274;1004654;-79
2024/01/18 10:46:36;;;;;;;32.80;22.30;;;;;;;-128.00;-1.00;-1.00;133576;1275;1003630;-78
2024/01/18 10:49:40;;;;;;;30.40;21.40;;;;;;;-128.00;-1.00;-1.00;133603;1274;1004207;-81
2024/01/18 10:52:42;;;;;;;27.20;21.10;;;;;;;-128.00;-1.00;-1.00;133585;1274;1004555;-79
2024/01/18 10:55:45;;;;;;;34.90;25.80;;;;;;;-128.00;-1.00;-1.00;133606;1274;1004037;-79
2024/01/18 10:58:48;;;;;;;26.40;19.30;;;;;;;-128.00;-1.00;-1.00;133610;1274;1005086;-79
2024/01/18 11:01:51;;;;;;;29.20;20.10;;;;;;;-128.00;-1.00;-1.00;133632;1274;1004899;-79
2024/01/18 11:04:53;;;;;;;26.70;19.80;;;;;;;-128.00;-1.00;-1.00;133615;1274;1004358;-79
2024/01/18 11:07:55;;;;;;;28.60;19.40;;;;;;;-128.00;-1.00;-1.00;133651;1274;1004789;-79
2024/01/18 11:10:58;;;;;;;27.90;19.40;;;;;;;-128.00;-1.00;-1.00;133594;1274;1004294;-79
2024/01/18 11:14:00;;;;;;;29.10;21.30;;;;;;;-128.00;-1.00;-1.00;133600;1274;1004207;-78
2024/01/18 11:17:03;;;;;;;28.20;21.10;;;;;;;-128.00;-1.00;-1.00;133554;1274;1004277;-78
2024/01/18 11:20:05;;;;;;;30.00;22.00;;;;;;;-128.00;-1.00;-1.00;133568;1274;1003446;-79
2024/01/18 11:23:07;;;;;;;47.80;29.60;;;;;;;-128.00;-1.00;-1.00;133584;1274;1004127;-78
2024/01/18 11:26:10;;;;;;;74.80;41.60;;;;;;;-128.00;-1.00;-1.00;133608;1274;1004365;-78
2024/01/18 11:29:12;;;;;;;87.60;45.00;;;;;;;-128.00;-1.00;-1.00;133557;1274;1005330;-78
2024/01/18 11:32:15;;;;;;;62.20;34.50;;;;;;;-128.00;-1.00;-1.00;133536;1274;1004572;-79
2024/01/18 11:35:17;;;;;;;72.30;38.50;;;;;;;-128.00;-1.00;-1.00;133624;1275;1005036;-78
2024/01/18 11:38:20;;;;;;;59.90;35.10;;;;;;;-128.00;-1.00;-1.00;133608;1274;1003940;-79
2024/01/18 11:41:22;;;;;;;52.40;30.20;;;;;;;-128.00;-1.00;-1.00;133582;1274;1003785;-78
2024/01/18 11:44:25;;;;;;;55.80;32.80;;;;;;;-128.00;-1.00;-1.00;133646;1274;1004309;-78
2024/01/18 11:47:27;;;;;;;59.80;35.50;;;;;;;-128.00;-1.00;-1.00;133573;1274;1003927;-77
2024/01/18 11:50:30;;;;;;;43.10;27.30;;;;;;;-128.00;-1.00;-1.00;133640;1274;1003800;-78
2024/01/18 11:53:32;;;;;;;53.60;30.50;;;;;;;-128.00;-1.00;-1.00;133614;1274;1004885;-77
2024/01/18 11:56:35;;;;;;;57.60;31.30;;;;;;;-128.00;-1.00;-1.00;133566;1274;1004363;-77
2024/01/18 11:59:37;;;;;;;49.90;30.20;;;;;;;-128.00;-1.00;-1.00;133568;1274;1003803;-77
2024/01/18 12:02:42;;;;;;;47.50;28.90;;;;;;;-128.00;-1.00;-1.00;133551;1274;1003700;-76
2024/01/18 12:05:47;;;;;;;;;;;;;;;-128.00;-1.00;-1.00;133581;1274;1004449;-78
2024/01/18 12:08:50;;;;;;;48.70;30.00;;;;;;;-128.00;-1.00;-1.00;133435;1274;1003979;-76
2024/01/18 12:11:55;;;;;;;49.60;29.30;;;;;;;-128.00;-1.00;-1.00;133554;1274;1005221;-77
2024/01/18 12:14:57;;;;;;;74.70;39.90;;;;;;;-128.00;-1.00;-1.00;133627;1274;1004151;-77
2024/01/18 12:18:00;;;;;;;56.70;33.00;;;;;;;-128.00;-1.00;-1.00;133663;1274;1004423;-77
2024/01/18 12:21:02;;;;;;;50.40;30.20;;;;;;;-128.00;-1.00;-1.00;133604;1274;1004875;-76
2024/01/18 12:24:05;;;;;;;47.10;29.20;;;;;;;-128.00;-1.00;-1.00;133546;1274;1004756;-77
2024/01/18 12:27:07;;;;;;;54.10;32.70;;;;;;;-128.00;-1.00;-1.00;133480;1274;1003786;-76
2024/01/18 12:30:10;;;;;;;50.20;31.40;;;;;;;-128.00;-1.00;-1.00;133499;1274;1003856;-77
2024/01/18 12:33:14;;;;;;;50.20;32.20;;;;;;;-128.00;-1.00;-1.00;133519;1274;1004024;-77
2024/01/18 12:36:16;;;;;;;40.90;28.20;;;;;;;-128.00;-1.00;-1.00;133520;1274;1005026;-76
2024/01/18 12:39:19;;;;;;;46.30;29.40;;;;;;;-128.00;-1.00;-1.00;133511;1274;1003858;-76
2024/01/18 12:42:22;;;;;;;47.70;31.90;;;;;;;-128.00;-1.00;-1.00;133509;1274;1003692;-77
2024/01/18 12:45:24;;;;;;;55.10;33.80;;;;;;;-128.00;-1.00;-1.00;133528;1274;1003848;-76
2024/01/18 12:48:27;;;;;;;60.80;36.70;;;;;;;-128.00;-1.00;-1.00;133473;1274;1004394;-76
2024/01/18 12:51:31;;;;;;;52.90;34.00;;;;;;;-128.00;-1.00;-1.00;133508;1274;1004387;-76
2024/01/18 12:54:33;;;;;;;56.00;33.70;;;;;;;-128.00;-1.00;-1.00;133522;1274;1003900;-76
2024/01/18 12:57:35;;;;;;;48.00;32.20;;;;;;;-128.00;-1.00;-1.00;133566;1274;1004074;-76
2024/01/18 13:00:38;;;;;;;46.20;29.30;;;;;;;-128.00;-1.00;-1.00;133503;1274;1004367;-76
2024/01/18 13:03:40;;;;;;;61.10;34.50;;;;;;;-128.00;-1.00;-1.00;133542;1274;1003774;-76
2024/01/18 13:06:43;;;;;;;53.00;33.60;;;;;;;-128.00;-1.00;-1.00;133526;1274;1004870;-75
2024/01/18 13:09:45;;;;;;;50.30;32.50;;;;;;;-128.00;-1.00;-1.00;133452;1274;1005552;-77
2024/01/18 13:12:49;;;;;;;49.80;31.50;;;;;;;-128.00;-1.00;-1.00;133488;1274;1004435;-76
2024/01/18 13:15:52;;;;;;;54.80;34.80;;;;;;;-128.00;-1.00;-1.00;133471;1274;1004088;-76
2024/01/18 13:18:55;;;;;;;65.70;39.00;;;;;;;-128.00;-1.00;-1.00;133495;1274;1004788;-76
2024/01/18 13:21:57;;;;;;;66.60;39.60;;;;;;;-128.00;-1.00;-1.00;133449;1274;1003932;-75
2024/01/18 13:24:59;;;;;;;105.40;56.60;;;;;;;-128.00;-1.00;-1.00;133449;1274;1003419;-75
2024/01/18 13:28:02;;;;;;;116.00;62.20;;;;;;;-128.00;-1.00;-1.00;133445;1274;1004342;-76
2024/01/18 13:31:05;;;;;;;103.30;58.10;;;;;;;-128.00;-1.00;-1.00;133505;1274;1005552;-76
2024/01/18 13:34:07;;;;;;;100.80;55.60;;;;;;;-128.00;-1.00;-1.00;133481;1274;1004285;-76
2024/01/18 13:37:10;;;;;;;78.90;46.50;;;;;;;-128.00;-1.00;-1.00;133419;1275;1004836;-76
2024/01/18 13:40:12;;;;;;;77.20;45.90;;;;;;;-128.00;-1.00;-1.00;133483;1275;1004234;-75
2024/01/18 13:43:14;;;;;;;72.90;41.60;;;;;;;-128.00;-1.00;-1.00;133514;1274;1004967;-75